Flight Track Log - Related Links

Times and Time Zones

All times are in EST time to prevent confusion due to time zone crossing. See the N612CT flight status page for this flight to view local times or setup timezone preferences in your user account.

Time Position Orientation Groundspeed Altitude Reporting Facility
EST Latitude Longitude Course Direction KTS MPH feet Rate Location/Type
Thu 05:03:00 PM 26.4010 -81.4891 46° Northeast  Level FlightAware Approximate
Thu 05:04:00 PM 26.4144 -81.4242 42° Northeast  Level Estimated
Thu 05:05:00 PM 26.4279 -81.3594 90° East  Level Estimated
Thu 05:06:00 PM 26.4413 -81.2946 31° Northeast  Level Estimated
Thu 05:07:00 PM 26.4896 -81.2557 36° Northeast  Level FlightAware Approximate
Thu 05:07:15 PM 26.4389 -81.5036 36° Northeast 156 180 5,000  Level Miami Center
Thu 05:08:00 PM 26.5380 -81.2168 36° Northeast  Level FlightAware Approximate
Thu 05:08:15 PM 26.4731 -81.4747 37° Northeast 156 180 5,100  Level Miami Center
Thu 05:09:00 PM 26.5863 -81.1778 36° Northeast  Level FlightAware Approximate
Thu 05:09:15 PM 26.5053 -81.4506 34° Northeast 143 165 5,600  Level Miami Center
Thu 05:10:00 PM 26.6346 -81.1388 36° Northeast  Level FlightAware Approximate
Thu 05:10:15 PM 26.5353 -81.4261 36° Northeast 138 159 6,000  Level Miami Center
Thu 05:11:00 PM 26.6829 -81.0998 36° Northeast  Level FlightAware Approximate
Thu 05:11:15 PM 26.5653 -81.3972 41° Northeast 138 159 6,500  Level Miami Center
Thu 05:12:15 PM 26.5956 -81.3706 38° Northeast 133 153 7,000 250 Climbing Miami Center
Thu 05:13:15 PM 26.6278 -81.3414 39° Northeast 138 159 7,000  Level Miami Center
Thu 05:14:15 PM 26.6642 -81.3081 39° Northeast 148 170 7,000  Level Miami Center
Thu 05:15:15 PM 26.6986 -81.2744 41° Northeast 153 176 7,000  Level Miami Center
Thu 05:16:15 PM 26.7267 -81.2431 45° Northeast 160 184 7,000  Level Miami Center
Thu 05:17:15 PM 26.7325 -81.1919 83° East 142 163 7,000  Level Miami Center
Thu 05:18:15 PM 26.7403 -81.1411 80° East 160 184 7,000  Level Miami Center
Thu 05:19:15 PM 26.7439 -81.0878 86° East 160 184 7,000  Level Miami Center
Thu 05:20:15 PM 26.7517 -81.0322 81° East 160 184 7,000  Level Miami Center
Thu 05:21:15 PM 26.7531 -80.9858 88° East 160 184 7,000  Level Miami Center
Thu 05:22:15 PM 26.7606 -80.9372 80° East 160 184 7,000  Level Miami Center
Thu 05:23:15 PM 26.7642 -80.8817 86° East 160 184 7,000  Level Miami Center
Thu 05:24:15 PM 26.7700 -80.8306 83° East 160 184 7,000  Level Miami Center
Thu 05:25:15 PM 26.7756 -80.7797 83° East 160 184 7,000  Level Miami Center
Thu 05:26:15 PM 26.7642 -80.7281 104° East 160 184 7,000 -100 Level Miami Center
Thu 05:27:15 PM 26.7594 -80.6767 96° East 160 184 6,800 -350 Descending Miami Center
Thu 05:28:15 PM 26.7522 -80.6278 99° East 165 190 6,300 -500 Descending Miami Center
Thu 05:29:15 PM 26.7433 -80.5692 100° East 165 190 5,800 -500 Descending Miami Center
Thu 05:30:15 PM 26.7383 -80.5250 97° East 160 184 5,300 -500 Descending Miami Center
Thu 05:32:00 PM 26.7346 -80.4450 93° East  Level FlightAware Approximate
Thu 05:39:00 PM 26.6750 -80.1330 101° East  Level FlightAware Approximate
Thu 05:40:00 PM 26.6674 -80.0881 101° East  Level FlightAware Approximate
Thu 05:41:00 PM 26.6667 -80.0833 101° East  Level FlightAware Approximate
Thu 05:42:00 PM 26.6832 -80.0956 101° East  Level Estimated
Thu 05:43:00 PM 26.6832 -80.0956 101° East  Level Estimated
Thu 05:44:00 PM 26.6832 -80.0956 101° East  Level Estimated
Thu 05:45:00 PM 26.6832 -80.0956 101° East  Level Estimated
Thu 05:46:00 PM 26.6832 -80.0956 101° East  Level Estimated
Thu 05:47:00 PM 26.6832 -80.0956 101° East  Level Estimated
Thu 05:48:00 PM 26.6832 -80.0956 101° East  Level Estimated

Login

Don't have an account? Register now (free) for customized features, flight alerts, and more!